KVBG

Vandenberg AFB Airport

Lompoc, California, USA
TAF KVBG 221500Z 2215/2321 03009KT 9999 FEW300 QNH3027INS BECMG 2219/2220 33009KT 9999 FEW300 QNH3024INS BECMG 2302/2303 09009KT 9999 SKC QNH3022INS BECMG 2317/2318 33012KT 9999 SKC QNH3027INS TX15/2222Z TN05/2313Z
Issued Valid From Valid To
Jan-22 @ 15:00 UTC
(2 hours ago)
Jan-22 @ 15:00 UTC
(2 hours ago)
Jan-23 @ 21:00 UTC
(-1 days ago)
Jan-22 @ 15:00 to Jan-22 @ 19:00
TAF KVBG 221500Z 2215/2321 03009KT 9999 FEW300 QNH3027INS
Wind Visibility Clouds Readings
30° at 9 knots Greater than 6 miles
  • Few at 30,000' AGL
Altimeter 30.27" Hg
Pressure 1024.92 hPa
Becoming Jan-22 @ 19:00 to Jan-23 @ 02:00
BECMG 2219/2220 33009KT 9999 FEW300 QNH3024INS
Wind Visibility Clouds Readings
330° at 9 knots Greater than 6 miles
  • Few at 30,000' AGL
Altimeter 30.24" Hg
Pressure 1023.92 hPa
Becoming Jan-23 @ 02:00 to Jan-23 @ 17:00
BECMG 2302/2303 09009KT 9999 SKC QNH3022INS
Wind Visibility Clouds Readings
90° at 9 knots Greater than 6 miles
  • Clear skies
Altimeter 30.21" Hg
Pressure 1022.92 hPa
Becoming Jan-23 @ 17:00 to Jan-23 @ 21:00
BECMG 2317/2318 33012KT 9999 SKC QNH3027INS TX15/2222Z TN05/2313Z
Wind Visibility Clouds Readings
330° at 12 knots Greater than 6 miles
  • Clear skies
Altimeter 30.27" Hg
Pressure 1024.92 hPa
TAF KVBG 221500Z 2215/2321 03009KT 9999 FEW300 QNH3027INS BECMG 2219/2220 33009KT 9999 FEW300 QNH3024INS BECMG 2302/2303 09009KT 9999 SKC QNH3022INS BECMG 2317/2318 33012KT 9999 SKC QNH3027INS TX15/2222Z TN05/2313Z
Issued Jan-22 @ 15:00 UTC
(2 hours ago)
Valid From Jan-22 @ 15:00 UTC
(2 hours ago)
Valid To Jan-23 @ 21:00 UTC
(-1 days ago)
Jan-22 @ 15:00 - Jan-22 @ 19:00
Wind Visibility
30° at 9 knots Greater than 6 miles
Clouds
  • Few at 30,000' AGL
Becoming Jan-22 @ 19:00 - Jan-23 @ 02:00
Wind Visibility
330° at 9 knots Greater than 6 miles
Clouds
  • Few at 30,000' AGL
Becoming Jan-23 @ 02:00 - Jan-23 @ 17:00
Wind Visibility
90° at 9 knots Greater than 6 miles
Clouds
  • Clear skies
Becoming Jan-23 @ 17:00 - Jan-23 @ 21:00
Wind Visibility
330° at 12 knots Greater than 6 miles
Clouds
  • Clear skies